sensor_id;sensor_type;location;lat;lon;timestamp;P1;durP1;ratioP1;P2;durP2;ratioP2
34242;SDS011;20504;43.214;27.920;2023-08-31T00:13:27;23.75;;;14.13;;
34242;SDS011;20504;43.214;27.920;2023-08-31T01:22:51;29.25;;;16.33;;
34242;SDS011;20504;43.214;27.920;2023-08-31T02:23:10;29.17;;;19.02;;
34242;SDS011;20504;43.214;27.920;2023-08-31T06:03:09;19.30;;;12.23;;
34242;SDS011;20504;43.214;27.920;2023-08-31T06:21:38;21.55;;;14.70;;
34242;SDS011;20504;43.214;27.920;2023-08-31T07:34:28;18.73;;;10.50;;
34242;SDS011;20504;43.214;27.920;2023-08-31T07:40:55;22.70;;;11.52;;
34242;SDS011;20504;43.214;27.920;2023-08-31T09:28:12;8.63;;;7.10;;
34242;SDS011;20504;43.214;27.920;2023-08-31T09:34:04;12.88;;;10.10;;
34242;SDS011;20504;43.214;27.920;2023-08-31T09:42:41;8.32;;;6.47;;
34242;SDS011;20504;43.214;27.920;2023-08-31T09:55:24;9.90;;;6.32;;
34242;SDS011;20504;43.214;27.920;2023-08-31T09:58:20;7.78;;;5.72;;
34242;SDS011;20504;43.214;27.920;2023-08-31T10:01:09;12.57;;;6.03;;
34242;SDS011;20504;43.214;27.920;2023-08-31T10:03:39;9.07;;;6.45;;
34242;SDS011;20504;43.214;27.920;2023-08-31T10:06:08;9.57;;;6.20;;
34242;SDS011;20504;43.214;27.920;2023-08-31T10:08:41;7.78;;;6.38;;
34242;SDS011;20504;43.214;27.920;2023-08-31T10:14:16;7.93;;;5.85;;
34242;SDS011;20504;43.214;27.920;2023-08-31T10:18:16;11.23;;;4.95;;
34242;SDS011;20504;43.214;27.920;2023-08-31T10:21:27;11.30;;;6.43;;
34242;SDS011;20504;43.214;27.920;2023-08-31T10:24:10;9.63;;;7.75;;
34242;SDS011;20504;43.214;27.920;2023-08-31T10:26:40;13.57;;;6.60;;
34242;SDS011;20504;43.214;27.920;2023-08-31T10:29:15;15.27;;;8.98;;
34242;SDS011;20504;43.214;27.920;2023-08-31T10:32:28;20.90;;;11.32;;
34242;SDS011;20504;43.214;27.920;2023-08-31T10:35:07;16.52;;;10.68;;
34242;SDS011;20504;43.214;27.920;2023-08-31T10:37:44;16.30;;;11.40;;
34242;SDS011;20504;43.214;27.920;2023-08-31T10:40:17;21.58;;;12.77;;
34242;SDS011;20504;43.214;27.920;2023-08-31T10:43:18;22.75;;;12.05;;
34242;SDS011;20504;43.214;27.920;2023-08-31T10:46:00;18.83;;;12.00;;
34242;SDS011;20504;43.214;27.920;2023-08-31T10:48:28;14.38;;;11.80;;
34242;SDS011;20504;43.214;27.920;2023-08-31T10:50:55;16.40;;;10.93;;
34242;SDS011;20504;43.214;27.920;2023-08-31T10:53:30;19.73;;;11.85;;
34242;SDS011;20504;43.214;27.920;2023-08-31T10:55:56;16.35;;;12.73;;
34242;SDS011;20504;43.214;27.920;2023-08-31T10:58:31;15.55;;;11.60;;
34242;SDS011;20504;43.214;27.920;2023-08-31T11:04:10;20.77;;;12.60;;
34242;SDS011;20504;43.214;27.920;2023-08-31T11:06:39;19.33;;;11.68;;
34242;SDS011;20504;43.214;27.920;2023-08-31T11:09:06;19.55;;;12.48;;
34242;SDS011;20504;43.214;27.920;2023-08-31T11:11:47;14.10;;;11.38;;
34242;SDS011;20504;43.214;27.920;2023-08-31T11:14:14;18.42;;;12.50;;
34242;SDS011;20504;43.214;27.920;2023-08-31T11:17:00;21.80;;;12.43;;
34242;SDS011;20504;43.214;27.920;2023-08-31T11:19:28;16.38;;;12.60;;
34242;SDS011;20504;43.214;27.920;2023-08-31T11:22:02;18.23;;;11.50;;
34242;SDS011;20504;43.214;27.920;2023-08-31T11:24:34;15.10;;;11.37;;
34242;SDS011;20504;43.214;27.920;2023-08-31T11:27:00;14.30;;;11.10;;
34242;SDS011;20504;43.214;27.920;2023-08-31T11:29:30;20.13;;;12.55;;
34242;SDS011;20504;43.214;27.920;2023-08-31T11:31:56;18.63;;;11.27;;
34242;SDS011;20504;43.214;27.920;2023-08-31T11:34:25;13.38;;;11.98;;
34242;SDS011;20504;43.214;27.920;2023-08-31T11:36:51;15.68;;;12.43;;
34242;SDS011;20504;43.214;27.920;2023-08-31T11:39:18;21.92;;;12.35;;
34242;SDS011;20504;43.214;27.920;2023-08-31T11:41:44;16.00;;;11.77;;
34242;SDS011;20504;43.214;27.920;2023-08-31T11:44:11;19.77;;;12.93;;
34242;SDS011;20504;43.214;27.920;2023-08-31T11:46:39;21.73;;;13.63;;
34242;SDS011;20504;43.214;27.920;2023-08-31T11:49:08;17.30;;;12.35;;
34242;SDS011;20504;43.214;27.920;2023-08-31T11:51:36;20.35;;;12.43;;
34242;SDS011;20504;43.214;27.920;2023-08-31T11:54:06;18.55;;;12.55;;
34242;SDS011;20504;43.214;27.920;2023-08-31T11:56:43;18.42;;;12.00;;
34242;SDS011;20504;43.214;27.920;2023-08-31T11:59:11;19.52;;;12.35;;
34242;SDS011;20504;43.214;27.920;2023-08-31T12:01:42;20.13;;;13.20;;
34242;SDS011;20504;43.214;27.920;2023-08-31T12:04:21;16.42;;;12.05;;
34242;SDS011;20504;43.214;27.920;2023-08-31T12:06:50;19.10;;;12.02;;
34242;SDS011;20504;43.214;27.920;2023-08-31T12:09:37;18.45;;;11.77;;
34242;SDS011;20504;43.214;27.920;2023-08-31T12:12:03;17.42;;;12.35;;
34242;SDS011;20504;43.214;27.920;2023-08-31T12:17:10;16.20;;;11.52;;
34242;SDS011;20504;43.214;27.920;2023-08-31T12:24:47;14.68;;;11.32;;
34242;SDS011;20504;43.214;27.920;2023-08-31T12:27:22;15.32;;;10.75;;
34242;SDS011;20504;43.214;27.920;2023-08-31T12:29:55;15.55;;;12.02;;
34242;SDS011;20504;43.214;27.920;2023-08-31T12:32:25;17.10;;;11.73;;
34242;SDS011;20504;43.214;27.920;2023-08-31T12:34:55;19.95;;;11.77;;
34242;SDS011;20504;43.214;27.920;2023-08-31T12:37:22;20.00;;;11.95;;
34242;SDS011;20504;43.214;27.920;2023-08-31T12:39:51;18.67;;;12.00;;
34242;SDS011;20504;43.214;27.920;2023-08-31T12:42:32;17.52;;;11.68;;
34242;SDS011;20504;43.214;27.920;2023-08-31T12:45:01;17.50;;;12.68;;
34242;SDS011;20504;43.214;27.920;2023-08-31T12:47:30;18.48;;;12.40;;
34242;SDS011;20504;43.214;27.920;2023-08-31T12:50:23;21.02;;;11.73;;
34242;SDS011;20504;43.214;27.920;2023-08-31T12:52:49;21.02;;;11.35;;
34242;SDS011;20504;43.214;27.920;2023-08-31T12:55:22;12.70;;;9.45;;
34242;SDS011;20504;43.214;27.920;2023-08-31T12:58:04;18.85;;;10.32;;
34242;SDS011;20504;43.214;27.920;2023-08-31T13:09:17;14.55;;;8.63;;
34242;SDS011;20504;43.214;27.920;2023-08-31T13:12:09;15.93;;;9.40;;
34242;SDS011;20504;43.214;27.920;2023-08-31T13:19:51;17.00;;;8.13;;
34242;SDS011;20504;43.214;27.920;2023-08-31T13:22:30;11.75;;;7.60;;
34242;SDS011;20504;43.214;27.920;2023-08-31T13:25:00;12.27;;;7.78;;
34242;SDS011;20504;43.214;27.920;2023-08-31T13:28:16;13.90;;;8.07;;
34242;SDS011;20504;43.214;27.920;2023-08-31T13:34:09;13.25;;;7.75;;
34242;SDS011;20504;43.214;27.920;2023-08-31T13:36:56;14.70;;;8.23;;
34242;SDS011;20504;43.214;27.920;2023-08-31T13:45:47;17.45;;;7.40;;
34242;SDS011;20504;43.214;27.920;2023-08-31T13:48:32;12.82;;;6.97;;
34242;SDS011;20504;43.214;27.920;2023-08-31T13:50:57;15.18;;;7.45;;
34242;SDS011;20504;43.214;27.920;2023-08-31T13:53:23;13.30;;;7.30;;
34242;SDS011;20504;43.214;27.920;2023-08-31T13:56:36;10.43;;;7.30;;
34242;SDS011;20504;43.214;27.920;2023-08-31T14:06:59;12.52;;;7.43;;
34242;SDS011;20504;43.214;27.920;2023-08-31T14:17:23;16.35;;;7.40;;
34242;SDS011;20504;43.214;27.920;2023-08-31T14:19:49;12.70;;;6.97;;
34242;SDS011;20504;43.214;27.920;2023-08-31T14:33:08;14.60;;;8.27;;
34242;SDS011;20504;43.214;27.920;2023-08-31T14:36:15;18.97;;;8.43;;
34242;SDS011;20504;43.214;27.920;2023-08-31T16:36:59;22.85;;;11.27;;
34242;SDS011;20504;43.214;27.920;2023-08-31T17:49:22;37.42;;;21.92;;
34242;SDS011;20504;43.214;27.920;2023-08-31T18:23:02;49.90;;;36.40;;
34242;SDS011;20504;43.214;27.920;2023-08-31T18:38:28;40.80;;;28.35;;
34242;SDS011;20504;43.214;27.920;2023-08-31T18:41:28;33.25;;;22.42;;
34242;SDS011;20504;43.214;27.920;2023-08-31T19:06:22;25.65;;;15.85;;
34242;SDS011;20504;43.214;27.920;2023-08-31T19:14:07;29.48;;;17.13;;
34242;SDS011;20504;43.214;27.920;2023-08-31T19:16:38;25.30;;;17.83;;
34242;SDS011;20504;43.214;27.920;2023-08-31T19:19:03;23.37;;;17.67;;
34242;SDS011;20504;43.214;27.920;2023-08-31T19:21:47;26.58;;;17.33;;
34242;SDS011;20504;43.214;27.920;2023-08-31T19:24:17;25.73;;;16.08;;
34242;SDS011;20504;43.214;27.920;2023-08-31T19:26:55;21.27;;;16.52;;
34242;SDS011;20504;43.214;27.920;2023-08-31T19:29:27;23.67;;;16.63;;
34242;SDS011;20504;43.214;27.920;2023-08-31T19:32:12;19.75;;;15.85;;
34242;SDS011;20504;43.214;27.920;2023-08-31T19:34:43;19.20;;;14.55;;
34242;SDS011;20504;43.214;27.920;2023-08-31T19:37:11;22.67;;;15.82;;
34242;SDS011;20504;43.214;27.920;2023-08-31T19:39:49;22.42;;;16.42;;
34242;SDS011;20504;43.214;27.920;2023-08-31T19:42:17;21.95;;;17.63;;
34242;SDS011;20504;43.214;27.920;2023-08-31T19:44:44;25.30;;;17.87;;
34242;SDS011;20504;43.214;27.920;2023-08-31T19:47:15;22.52;;;15.50;;
34242;SDS011;20504;43.214;27.920;2023-08-31T19:49:47;21.40;;;16.42;;
34242;SDS011;20504;43.214;27.920;2023-08-31T19:52:15;20.02;;;15.43;;
34242;SDS011;20504;43.214;27.920;2023-08-31T19:54:40;21.97;;;16.37;;
34242;SDS011;20504;43.214;27.920;2023-08-31T19:57:07;23.00;;;16.98;;
34242;SDS011;20504;43.214;27.920;2023-08-31T19:59:35;23.40;;;17.95;;
34242;SDS011;20504;43.214;27.920;2023-08-31T20:02:06;23.20;;;16.70;;
34242;SDS011;20504;43.214;27.920;2023-08-31T20:04:35;20.48;;;16.77;;
34242;SDS011;20504;43.214;27.920;2023-08-31T20:07:01;23.93;;;17.43;;
34242;SDS011;20504;43.214;27.920;2023-08-31T20:09:26;23.70;;;18.60;;
34242;SDS011;20504;43.214;27.920;2023-08-31T20:11:52;22.80;;;17.20;;
34242;SDS011;20504;43.214;27.920;2023-08-31T20:14:17;21.07;;;17.00;;
34242;SDS011;20504;43.214;27.920;2023-08-31T20:16:43;21.70;;;17.80;;
34242;SDS011;20504;43.214;27.920;2023-08-31T20:19:09;31.67;;;24.97;;
34242;SDS011;20504;43.214;27.920;2023-08-31T20:21:35;21.47;;;17.10;;
34242;SDS011;20504;43.214;27.920;2023-08-31T20:24:00;21.47;;;16.10;;
34242;SDS011;20504;43.214;27.920;2023-08-31T20:26:25;24.40;;;15.77;;
34242;SDS011;20504;43.214;27.920;2023-08-31T20:28:51;21.00;;;16.57;;
34242;SDS011;20504;43.214;27.920;2023-08-31T20:31:17;21.73;;;16.92;;
34242;SDS011;20504;43.214;27.920;2023-08-31T20:33:44;21.60;;;15.70;;
34242;SDS011;20504;43.214;27.920;2023-08-31T20:36:10;21.42;;;15.20;;
34242;SDS011;20504;43.214;27.920;2023-08-31T20:38:36;18.25;;;14.50;;
34242;SDS011;20504;43.214;27.920;2023-08-31T20:41:03;24.30;;;15.60;;
34242;SDS011;20504;43.214;27.920;2023-08-31T20:43:29;22.90;;;16.05;;
34242;SDS011;20504;43.214;27.920;2023-08-31T20:46:07;20.30;;;17.27;;
34242;SDS011;20504;43.214;27.920;2023-08-31T20:48:50;18.55;;;16.10;;
34242;SDS011;20504;43.214;27.920;2023-08-31T20:51:16;21.88;;;16.75;;
34242;SDS011;20504;43.214;27.920;2023-08-31T20:53:41;19.00;;;16.93;;
34242;SDS011;20504;43.214;27.920;2023-08-31T20:56:07;23.47;;;17.50;;
34242;SDS011;20504;43.214;27.920;2023-08-31T20:58:34;26.13;;;18.38;;
34242;SDS011;20504;43.214;27.920;2023-08-31T21:01:04;27.73;;;19.58;;
34242;SDS011;20504;43.214;27.920;2023-08-31T21:03:30;25.48;;;22.15;;
34242;SDS011;20504;43.214;27.920;2023-08-31T21:05:59;26.35;;;21.88;;
34242;SDS011;20504;43.214;27.920;2023-08-31T21:08:24;34.73;;;24.27;;
34242;SDS011;20504;43.214;27.920;2023-08-31T21:10:52;30.42;;;22.73;;
34242;SDS011;20504;43.214;27.920;2023-08-31T21:15:45;26.38;;;21.20;;
34242;SDS011;20504;43.214;27.920;2023-08-31T21:18:10;31.63;;;23.03;;
34242;SDS011;20504;43.214;27.920;2023-08-31T21:20:36;31.17;;;23.48;;
34242;SDS011;20504;43.214;27.920;2023-08-31T21:23:02;32.67;;;24.77;;
34242;SDS011;20504;43.214;27.920;2023-08-31T21:25:28;33.22;;;25.05;;
34242;SDS011;20504;43.214;27.920;2023-08-31T21:27:53;40.10;;;31.33;;
34242;SDS011;20504;43.214;27.920;2023-08-31T21:30:19;42.43;;;31.63;;
34242;SDS011;20504;43.214;27.920;2023-08-31T21:32:45;67.17;;;42.17;;
34242;SDS011;20504;43.214;27.920;2023-08-31T21:35:11;73.18;;;43.80;;
34242;SDS011;20504;43.214;27.920;2023-08-31T21:37:36;74.97;;;49.03;;
34242;SDS011;20504;43.214;27.920;2023-08-31T21:40:03;70.70;;;46.80;;
34242;SDS011;20504;43.214;27.920;2023-08-31T21:42:30;72.00;;;46.20;;
34242;SDS011;20504;43.214;27.920;2023-08-31T21:44:58;80.80;;;48.53;;
34242;SDS011;20504;43.214;27.920;2023-08-31T21:47:26;66.22;;;45.72;;
34242;SDS011;20504;43.214;27.920;2023-08-31T21:49:59;62.83;;;44.20;;
34242;SDS011;20504;43.214;27.920;2023-08-31T21:55:07;70.25;;;45.13;;
34242;SDS011;20504;43.214;27.920;2023-08-31T21:57:33;68.18;;;42.88;;
34242;SDS011;20504;43.214;27.920;2023-08-31T22:00:03;66.80;;;43.20;;
34242;SDS011;20504;43.214;27.920;2023-08-31T22:05:07;59.83;;;37.00;;
34242;SDS011;20504;43.214;27.920;2023-08-31T22:07:37;53.10;;;36.28;;
34242;SDS011;20504;43.214;27.920;2023-08-31T22:10:40;45.55;;;33.72;;
34242;SDS011;20504;43.214;27.920;2023-08-31T22:13:07;47.20;;;34.17;;
34242;SDS011;20504;43.214;27.920;2023-08-31T22:18:10;49.22;;;33.83;;
34242;SDS011;20504;43.214;27.920;2023-08-31T22:23:16;44.08;;;29.50;;
34242;SDS011;20504;43.214;27.920;2023-08-31T22:25:54;39.83;;;28.55;;
34242;SDS011;20504;43.214;27.920;2023-08-31T22:28:20;41.13;;;26.95;;
34242;SDS011;20504;43.214;27.920;2023-08-31T22:30:47;41.97;;;28.58;;
34242;SDS011;20504;43.214;27.920;2023-08-31T22:35:44;55.08;;;34.38;;
34242;SDS011;20504;43.214;27.920;2023-08-31T22:38:14;60.40;;;38.45;;
34242;SDS011;20504;43.214;27.920;2023-08-31T22:40:44;72.78;;;45.00;;
34242;SDS011;20504;43.214;27.920;2023-08-31T22:43:11;59.70;;;41.92;;
34242;SDS011;20504;43.214;27.920;2023-08-31T22:45:37;59.53;;;39.38;;
34242;SDS011;20504;43.214;27.920;2023-08-31T22:48:03;57.28;;;35.85;;
34242;SDS011;20504;43.214;27.920;2023-08-31T22:50:34;50.70;;;34.53;;
34242;SDS011;20504;43.214;27.920;2023-08-31T22:53:00;52.57;;;34.73;;
34242;SDS011;20504;43.214;27.920;2023-08-31T22:55:28;50.78;;;35.15;;
34242;SDS011;20504;43.214;27.920;2023-08-31T22:57:56;49.75;;;34.53;;
34242;SDS011;20504;43.214;27.920;2023-08-31T23:00:27;47.83;;;32.90;;
34242;SDS011;20504;43.214;27.920;2023-08-31T23:03:23;50.90;;;29.38;;
34242;SDS011;20504;43.214;27.920;2023-08-31T23:06:16;39.80;;;27.70;;
34242;SDS011;20504;43.214;27.920;2023-08-31T23:08:44;35.08;;;24.65;;
34242;SDS011;20504;43.214;27.920;2023-08-31T23:11:14;33.20;;;21.85;;
34242;SDS011;20504;43.214;27.920;2023-08-31T23:13:56;29.70;;;20.83;;
34242;SDS011;20504;43.214;27.920;2023-08-31T23:16:40;27.42;;;20.00;;
34242;SDS011;20504;43.214;27.920;2023-08-31T23:19:21;22.80;;;17.08;;
34242;SDS011;20504;43.214;27.920;2023-08-31T23:21:58;18.70;;;15.68;;
34242;SDS011;20504;43.214;27.920;2023-08-31T23:24:24;19.10;;;13.67;;
34242;SDS011;20504;43.214;27.920;2023-08-31T23:26:51;19.40;;;13.93;;
34242;SDS011;20504;43.214;27.920;2023-08-31T23:29:23;18.25;;;13.40;;
34242;SDS011;20504;43.214;27.920;2023-08-31T23:31:51;16.52;;;13.00;;
34242;SDS011;20504;43.214;27.920;2023-08-31T23:34:20;20.83;;;12.65;;
34242;SDS011;20504;43.214;27.920;2023-08-31T23:36:50;14.68;;;12.02;;
34242;SDS011;20504;43.214;27.920;2023-08-31T23:39:18;18.35;;;12.57;;
34242;SDS011;20504;43.214;27.920;2023-08-31T23:41:43;19.47;;;11.73;;
34242;SDS011;20504;43.214;27.920;2023-08-31T23:44:09;13.43;;;10.77;;
34242;SDS011;20504;43.214;27.920;2023-08-31T23:49:10;14.10;;;10.20;;
34242;SDS011;20504;43.214;27.920;2023-08-31T23:51:38;15.68;;;9.90;;
34242;SDS011;20504;43.214;27.920;2023-08-31T23:54:05;12.52;;;9.88;;
34242;SDS011;20504;43.214;27.920;2023-08-31T23:56:36;14.25;;;10.43;;
34242;SDS011;20504;43.214;27.920;2023-08-31T23:59:07;19.23;;;13.93;;
